createdAt,value
2022-08-30T00:02:25.303Z,19.50
2022-08-30T00:04:54.356Z,19.50
2022-08-30T00:07:21.904Z,19.50
2022-08-30T00:09:48.927Z,19.40
2022-08-30T00:12:15.961Z,19.40
2022-08-30T00:14:42.937Z,19.30
2022-08-30T00:17:09.945Z,19.30
2022-08-30T00:19:37.376Z,19.20
2022-08-30T00:22:05.442Z,19.20
2022-08-30T00:24:32.693Z,19.10
2022-08-30T00:26:59.653Z,19.10
2022-08-30T00:29:26.689Z,19.10
2022-08-30T00:31:53.658Z,19.10
2022-08-30T00:34:20.618Z,19.00
2022-08-30T00:36:47.616Z,19.00
2022-08-30T00:39:14.599Z,18.90
2022-08-30T00:41:41.665Z,18.90
2022-08-30T00:44:08.846Z,18.90
2022-08-30T00:46:35.863Z,18.90
2022-08-30T00:49:07.206Z,18.90
2022-08-30T00:51:35.565Z,18.80
2022-08-30T00:54:04.697Z,18.70
2022-08-30T00:56:34.522Z,18.80
2022-08-30T00:59:04.297Z,18.70
2022-08-30T01:01:34.291Z,18.70
2022-08-30T01:04:02.840Z,18.60
2022-08-30T01:06:32.429Z,18.60
2022-08-30T01:09:01.657Z,18.50
2022-08-30T01:11:29.470Z,18.50
2022-08-30T01:13:57.536Z,18.50
2022-08-30T01:16:27.299Z,18.50
2022-08-30T01:18:58.083Z,18.50
2022-08-30T01:21:32.351Z,18.40
2022-08-30T01:24:00.891Z,18.40
2022-08-30T01:26:30.406Z,18.40
2022-08-30T01:29:02.688Z,18.40
2022-08-30T01:31:29.690Z,18.30
2022-08-30T01:33:56.742Z,18.30
2022-08-30T01:36:25.146Z,18.20
2022-08-30T01:38:55.893Z,18.20
2022-08-30T01:41:49.235Z,18.20
2022-08-30T01:44:16.724Z,18.10
2022-08-30T01:46:47.012Z,18.10
2022-08-30T01:49:25.704Z,18.10
2022-08-30T01:52:00.263Z,18.10
2022-08-30T01:54:36.999Z,18.10
2022-08-30T01:57:07.393Z,18.10
2022-08-30T01:59:34.677Z,18.10
2022-08-30T02:02:01.836Z,18.00
2022-08-30T02:04:28.811Z,18.00
2022-08-30T02:06:55.827Z,18.00
2022-08-30T02:09:22.825Z,17.90
2022-08-30T02:11:50.468Z,17.90
2022-08-30T02:14:17.406Z,17.90
2022-08-30T02:16:48.706Z,17.80
2022-08-30T02:19:16.387Z,17.80
2022-08-30T02:21:43.459Z,17.80
2022-08-30T02:24:10.650Z,17.80
2022-08-30T02:26:37.654Z,17.80
2022-08-30T02:29:06.228Z,17.80
2022-08-30T02:31:33.614Z,17.70
2022-08-30T02:34:00.688Z,17.60
2022-08-30T02:36:28.031Z,17.70
2022-08-30T02:38:55.177Z,17.60
2022-08-30T02:41:23.696Z,17.50
2022-08-30T02:43:51.552Z,17.60
2022-08-30T02:46:18.974Z,17.50
2022-08-30T02:48:46.020Z,17.50
2022-08-30T02:51:14.985Z,17.50
2022-08-30T02:53:44.030Z,17.50
2022-08-30T02:56:12.261Z,17.40
2022-08-30T02:58:42.450Z,17.40
2022-08-30T03:01:12.399Z,17.30
2022-08-30T03:03:40.327Z,17.30
2022-08-30T03:06:07.935Z,17.20
2022-08-30T03:08:34.902Z,17.10
2022-08-30T03:11:02.824Z,17.10
2022-08-30T03:13:30.430Z,17.10
2022-08-30T03:15:58.263Z,17.10
2022-08-30T03:18:26.773Z,17.00
2022-08-30T03:20:54.404Z,17.00
2022-08-30T03:23:24.123Z,17.00
2022-08-30T03:25:52.011Z,17.00
2022-08-30T03:28:19.021Z,17.00
2022-08-30T03:30:45.988Z,16.90
2022-08-30T03:33:13.040Z,16.90
2022-08-30T03:35:40.554Z,16.90
2022-08-30T03:38:07.539Z,16.90
2022-08-30T03:40:36.145Z,16.90
2022-08-30T03:43:03.579Z,16.80
2022-08-30T03:45:32.486Z,16.80
2022-08-30T03:47:59.825Z,16.80
2022-08-30T03:50:26.922Z,16.80
2022-08-30T03:52:53.885Z,16.80
2022-08-30T03:55:20.970Z,16.80
2022-08-30T03:57:48.070Z,16.80
2022-08-30T04:00:16.468Z,16.70
2022-08-30T04:02:43.769Z,16.80
2022-08-30T04:05:11.748Z,16.70
2022-08-30T04:07:41.221Z,16.70
2022-08-30T04:10:09.619Z,16.70
2022-08-30T04:12:38.610Z,16.60
2022-08-30T04:15:06.462Z,16.60
2022-08-30T04:17:33.673Z,16.50
2022-08-30T04:20:00.720Z,16.50
2022-08-30T04:22:27.807Z,16.60
2022-08-30T04:24:54.763Z,16.50
2022-08-30T04:27:21.879Z,16.50
2022-08-30T04:29:48.863Z,16.40
2022-08-30T04:32:16.839Z,16.40
2022-08-30T04:34:43.868Z,16.40
2022-08-30T04:37:11.186Z,16.40
2022-08-30T04:39:38.840Z,16.40
2022-08-30T04:42:07.001Z,16.30
2022-08-30T04:44:36.363Z,16.30
2022-08-30T04:47:03.519Z,16.20
2022-08-30T04:49:33.131Z,16.20
2022-08-30T04:52:00.273Z,16.30
2022-08-30T04:54:27.265Z,16.30
2022-08-30T04:56:54.360Z,16.30
2022-08-30T04:59:22.205Z,16.30
2022-08-30T05:01:49.249Z,16.30
2022-08-30T05:04:16.331Z,16.30
2022-08-30T05:06:43.757Z,16.20
2022-08-30T05:09:10.924Z,16.20
2022-08-30T05:11:38.992Z,16.20
2022-08-30T05:14:06.504Z,16.20
2022-08-30T05:16:33.669Z,16.20
2022-08-30T05:19:00.828Z,16.20
2022-08-30T05:21:29.276Z,16.20
2022-08-30T05:24:00.744Z,16.20
2022-08-30T05:26:30.763Z,16.20
2022-08-30T05:28:57.867Z,16.20
2022-08-30T05:31:29.518Z,16.20
2022-08-30T05:33:57.178Z,16.30
2022-08-30T05:36:26.910Z,16.20
2022-08-30T05:38:55.168Z,16.30
2022-08-30T05:41:26.526Z,16.30
2022-08-30T05:43:56.196Z,16.30
2022-08-30T05:46:23.762Z,16.30
2022-08-30T05:48:51.357Z,16.30
2022-08-30T05:51:21.313Z,16.40
2022-08-30T05:53:49.600Z,16.30
2022-08-30T05:56:20.023Z,16.40
2022-08-30T05:58:48.202Z,16.40
2022-08-30T06:01:31.926Z,16.50
2022-08-30T06:04:04.230Z,16.50
2022-08-30T06:06:33.808Z,16.50
2022-08-30T06:09:00.955Z,16.50
2022-08-30T06:11:30.616Z,16.60
2022-08-30T06:13:57.620Z,16.50
2022-08-30T06:16:27.235Z,16.60
2022-08-30T06:18:56.611Z,16.70
2022-08-30T06:21:25.447Z,16.70
2022-08-30T06:23:53.109Z,16.80
2022-08-30T06:26:21.213Z,16.80
2022-08-30T06:28:49.322Z,16.80
2022-08-30T06:31:18.699Z,16.90
2022-08-30T06:33:46.242Z,17.00
2022-08-30T06:36:17.601Z,17.00
2022-08-30T06:38:45.437Z,17.10
2022-08-30T06:41:16.274Z,17.10
2022-08-30T06:43:48.703Z,17.20
2022-08-30T06:46:19.512Z,17.30
2022-08-30T06:48:48.385Z,17.30
2022-08-30T06:51:19.872Z,17.40
2022-08-30T06:53:46.973Z,17.50
2022-08-30T06:56:16.701Z,17.50
2022-08-30T06:58:44.231Z,17.60
2022-08-30T07:01:16.738Z,17.60
2022-08-30T07:03:44.549Z,17.80
2022-08-30T07:06:12.105Z,17.80
2022-08-30T07:08:39.719Z,17.90
2022-08-30T07:11:07.848Z,18.00
2022-08-30T07:13:36.059Z,18.00
2022-08-30T07:16:10.985Z,18.10
2022-08-30T07:18:56.024Z,18.20
2022-08-30T07:21:28.770Z,18.30
2022-08-30T07:23:58.272Z,18.40
2022-08-30T07:26:32.694Z,18.50
2022-08-30T07:29:00.470Z,18.60
2022-08-30T07:31:27.633Z,18.70
2022-08-30T07:33:55.236Z,18.70
2022-08-30T07:36:23.102Z,18.80
2022-08-30T07:38:51.795Z,18.90
2022-08-30T07:41:35.710Z,19.00
2022-08-30T07:44:03.253Z,19.00
2022-08-30T07:46:30.343Z,19.10
2022-08-30T07:48:59.894Z,19.20
2022-08-30T07:51:28.892Z,19.30
2022-08-30T07:53:56.618Z,19.40
2022-08-30T07:56:25.308Z,19.50
2022-08-30T07:58:53.141Z,19.50
2022-08-30T08:01:22.504Z,19.60
2022-08-30T08:03:50.595Z,19.70
2022-08-30T08:06:20.270Z,19.80
2022-08-30T08:08:47.479Z,19.90
2022-08-30T08:11:20.771Z,20.00
2022-08-30T08:13:54.015Z,20.00
2022-08-30T08:16:27.526Z,20.10
2022-08-30T08:18:54.890Z,20.20
2022-08-30T08:21:23.646Z,20.30
2022-08-30T08:23:51.538Z,20.40
2022-08-30T08:26:19.215Z,20.50
2022-08-30T08:28:47.317Z,20.60
2022-08-30T08:31:20.947Z,20.70
2022-08-30T08:33:48.463Z,20.80
2022-08-30T08:36:16.477Z,20.90
2022-08-30T08:38:43.642Z,21.00
2022-08-30T08:41:40.669Z,21.20
2022-08-30T08:44:18.210Z,21.40
2022-08-30T08:47:07.458Z,21.60
2022-08-30T08:49:38.202Z,21.80
2022-08-30T08:52:33.752Z,22.00
2022-08-30T08:55:07.442Z,22.10
2022-08-30T08:57:36.430Z,22.30
2022-08-30T09:00:12.801Z,22.50
2022-08-30T09:02:55.790Z,22.60
2022-08-30T09:05:26.221Z,22.70
2022-08-30T09:08:09.930Z,22.80
2022-08-30T09:10:49.897Z,22.90
2022-08-30T09:13:19.061Z,23.00
2022-08-30T09:15:48.951Z,23.10
2022-08-30T09:18:20.087Z,23.10
2022-08-30T09:20:51.698Z,23.30
2022-08-30T09:23:32.386Z,23.30
2022-08-30T09:26:02.154Z,23.50
2022-08-30T09:28:51.177Z,23.70
2022-08-30T09:31:27.229Z,23.80
2022-08-30T09:34:06.681Z,24.10
2022-08-30T09:36:40.511Z,24.30
2022-08-30T09:39:35.553Z,24.50
2022-08-30T09:42:20.513Z,24.90
2022-08-30T09:44:47.727Z,25.40
2022-08-30T09:47:31.792Z,25.80
2022-08-30T09:50:05.038Z,26.20
2022-08-30T09:52:39.521Z,26.80
2022-08-30T09:55:20.008Z,27.60
2022-08-30T09:58:05.857Z,29.20
2022-08-30T10:00:40.912Z,30.70
2022-08-30T10:03:13.899Z,31.80
2022-08-30T10:05:55.538Z,32.80
2022-08-30T10:09:02.475Z,34.10
2022-08-30T10:11:53.766Z,34.90
2022-08-30T10:14:51.116Z,35.90
2022-08-30T10:17:39.283Z,37.50
2022-08-30T10:20:13.756Z,38.90
2022-08-30T10:23:12.756Z,39.90
2022-08-30T10:26:20.732Z,40.70
2022-08-30T10:29:14.822Z,41.90
2022-08-30T10:31:46.921Z,42.60
2022-08-30T10:34:25.769Z,42.70
2022-08-30T10:37:03.906Z,44.00
2022-08-30T10:39:40.647Z,43.40
2022-08-30T10:42:28.825Z,43.90
2022-08-30T10:45:03.475Z,44.60
2022-08-30T10:47:40.181Z,45.50
2022-08-30T10:50:16.571Z,46.00
2022-08-30T10:52:59.059Z,46.70
2022-08-30T10:55:33.606Z,46.60
2022-08-30T10:58:06.275Z,46.60
2022-08-30T11:01:00.825Z,47.00
2022-08-30T11:04:09.527Z,47.30
2022-08-30T11:06:53.946Z,47.90
2022-08-30T11:09:54.691Z,47.80
2022-08-30T11:12:36.995Z,48.40
2022-08-30T11:15:21.559Z,48.80
2022-08-30T11:18:10.480Z,48.90
2022-08-30T11:20:44.941Z,49.40
2022-08-30T11:23:36.425Z,49.00
2022-08-30T11:26:15.968Z,49.50
2022-08-30T11:28:47.518Z,49.70
2022-08-30T11:31:20.615Z,49.30
2022-08-30T11:33:49.319Z,49.70
2022-08-30T11:36:46.190Z,50.40
2022-08-30T11:39:48.971Z,50.90
2022-08-30T11:42:51.154Z,51.20
2022-08-30T11:45:25.005Z,51.10
2022-08-30T11:48:29.025Z,51.90
2022-08-30T11:51:06.143Z,51.70
2022-08-30T11:53:56.485Z,50.90
2022-08-30T11:56:46.864Z,50.40
2022-08-30T11:59:30.675Z,50.40
2022-08-30T12:01:58.486Z,50.20
2022-08-30T12:04:46.906Z,49.60
2022-08-30T12:07:52.152Z,48.80
2022-08-30T12:10:36.681Z,49.70
2022-08-30T12:13:04.301Z,50.00
2022-08-30T12:15:59.205Z,49.70
2022-08-30T12:18:43.303Z,48.60
2022-08-30T12:21:21.379Z,48.60
2022-08-30T12:23:59.015Z,48.70
2022-08-30T12:26:37.957Z,47.80
2022-08-30T12:29:24.630Z,47.50
2022-08-30T12:32:22.450Z,46.30
2022-08-30T12:35:03.395Z,45.30
2022-08-30T12:37:42.316Z,43.90
2022-08-30T12:40:21.159Z,43.10
2022-08-30T12:43:04.841Z,42.00
2022-08-30T12:45:44.343Z,41.80
2022-08-30T12:48:17.661Z,41.40
2022-08-30T12:50:58.051Z,41.50
2022-08-30T12:53:39.394Z,41.50
2022-08-30T12:56:12.894Z,42.10
2022-08-30T12:58:50.436Z,42.60
2022-08-30T13:01:33.319Z,43.10
2022-08-30T13:06:43.977Z,44.60
2022-08-30T13:09:34.104Z,45.40
2022-08-30T13:12:23.242Z,45.70
2022-08-30T13:14:52.409Z,45.80
2022-08-30T13:17:19.443Z,45.90
2022-08-30T13:20:05.910Z,46.20
2022-08-30T13:22:39.119Z,46.20
2022-08-30T13:25:08.491Z,46.50
2022-08-30T13:27:37.644Z,46.30
2022-08-30T13:30:18.854Z,46.40
2022-08-30T13:32:46.100Z,45.80
2022-08-30T13:35:13.721Z,45.50
2022-08-30T13:37:49.809Z,44.80
2022-08-30T13:40:18.890Z,43.90
2022-08-30T13:42:45.958Z,43.30
2022-08-30T13:48:02.789Z,41.60
2022-08-30T13:50:31.143Z,40.90
2022-08-30T13:52:58.417Z,40.40
2022-08-30T13:55:25.701Z,40.10
2022-08-30T13:57:54.345Z,39.80
2022-08-30T14:00:23.701Z,39.90
2022-08-30T14:02:57.232Z,39.70
2022-08-30T14:05:52.699Z,39.90
2022-08-30T14:08:45.246Z,40.20
2022-08-30T14:11:18.663Z,40.50
2022-08-30T14:16:35.892Z,41.50
2022-08-30T14:19:03.280Z,41.80
2022-08-30T14:21:30.617Z,42.00
2022-08-30T14:23:58.231Z,41.90
2022-08-30T14:26:32.559Z,41.60
2022-08-30T14:29:02.079Z,41.50
2022-08-30T14:31:30.288Z,41.20
2022-08-30T14:34:00.374Z,40.80
2022-08-30T14:36:27.308Z,40.30
2022-08-30T14:38:54.338Z,40.30
2022-08-30T14:41:21.667Z,39.60
2022-08-30T14:43:50.135Z,39.20
2022-08-30T14:46:17.288Z,38.60
2022-08-30T14:48:44.265Z,38.30
2022-08-30T14:51:18.657Z,37.90
2022-08-30T14:53:46.680Z,37.40
2022-08-30T14:56:16.470Z,36.80
2022-08-30T14:58:43.737Z,36.30
2022-08-30T15:01:12.602Z,35.90
2022-08-30T15:03:41.515Z,35.70
2022-08-30T15:06:09.823Z,35.50
2022-08-30T15:08:38.388Z,35.20
2022-08-30T15:11:12.303Z,35.00
2022-08-30T15:13:40.156Z,34.80
2022-08-30T15:16:18.158Z,34.60
2022-08-30T15:18:45.638Z,34.50
2022-08-30T15:21:12.639Z,34.40
2022-08-30T15:23:40.106Z,34.20
2022-08-30T15:26:09.433Z,34.10
2022-08-30T15:28:37.094Z,34.00
2022-08-30T15:31:08.634Z,34.10
2022-08-30T15:33:37.333Z,34.00
2022-08-30T15:36:05.660Z,34.10
2022-08-30T15:38:32.814Z,34.10
2022-08-30T15:41:04.412Z,34.00
2022-08-30T15:43:31.790Z,34.00
2022-08-30T15:46:16.830Z,34.10
2022-08-30T15:48:46.023Z,34.10
2022-08-30T15:51:13.881Z,34.00
2022-08-30T15:53:41.154Z,33.70
2022-08-30T15:56:08.214Z,33.70
2022-08-30T15:58:35.352Z,33.60
2022-08-30T16:01:05.063Z,33.60
2022-08-30T16:03:34.332Z,33.50
2022-08-30T16:06:04.844Z,33.50
2022-08-30T16:08:31.840Z,33.40
2022-08-30T16:10:58.884Z,33.30
2022-08-30T16:13:25.832Z,33.30
2022-08-30T16:15:52.912Z,33.30
2022-08-30T16:18:19.962Z,33.20
2022-08-30T16:20:47.113Z,33.10
2022-08-30T16:23:14.309Z,33.10
2022-08-30T16:25:41.545Z,33.00
2022-08-30T16:28:09.412Z,32.90
2022-08-30T16:30:37.080Z,32.90
2022-08-30T16:33:04.221Z,32.70
2022-08-30T16:35:33.051Z,32.50
2022-08-30T16:38:00.099Z,32.20
2022-08-30T16:40:27.598Z,32.10
2022-08-30T16:42:54.625Z,32.00
2022-08-30T16:45:21.591Z,31.90
2022-08-30T16:47:51.161Z,31.80
2022-08-30T16:50:21.540Z,31.60
2022-08-30T16:52:48.533Z,31.40
2022-08-30T16:55:15.745Z,31.20
2022-08-30T16:57:43.606Z,31.00
2022-08-30T17:00:12.987Z,30.90
2022-08-30T17:02:42.842Z,30.80
2022-08-30T17:05:21.699Z,30.70
2022-08-30T17:07:48.725Z,30.60
2022-08-30T17:10:16.535Z,30.60
2022-08-30T17:12:50.201Z,30.60
2022-08-30T17:15:17.574Z,30.40
2022-08-30T17:17:44.640Z,30.30
2022-08-30T17:20:12.721Z,30.20
2022-08-30T17:22:40.472Z,30.10
2022-08-30T17:25:08.759Z,30.00
2022-08-30T17:27:35.863Z,29.90
2022-08-30T17:30:06.754Z,29.80
2022-08-30T17:32:34.323Z,29.70
2022-08-30T17:35:01.721Z,29.60
2022-08-30T17:37:28.701Z,29.50
2022-08-30T17:39:56.363Z,29.40
2022-08-30T17:42:23.415Z,29.40
2022-08-30T17:44:58.027Z,29.30
2022-08-30T17:47:28.372Z,29.20
2022-08-30T17:49:55.669Z,29.00
2022-08-30T17:52:22.629Z,28.90
2022-08-30T17:54:50.802Z,28.80
2022-08-30T17:57:18.189Z,28.70
2022-08-30T17:59:45.913Z,28.60
2022-08-30T18:02:14.810Z,28.50
2022-08-30T18:04:42.739Z,28.30
2022-08-30T18:07:12.342Z,28.10
2022-08-30T18:09:40.764Z,28.10
2022-08-30T18:12:08.120Z,28.00
2022-08-30T18:14:35.169Z,27.80
2022-08-30T18:17:05.644Z,27.70
2022-08-30T18:19:33.206Z,27.70
2022-08-30T18:22:00.374Z,27.60
2022-08-30T18:24:30.796Z,27.50
2022-08-30T18:26:58.658Z,27.40
2022-08-30T18:29:30.131Z,27.30
2022-08-30T18:32:02.525Z,27.20
2022-08-30T18:34:30.077Z,27.10
2022-08-30T18:36:57.511Z,27.00
2022-08-30T18:39:24.566Z,26.90
2022-08-30T18:41:54.264Z,26.80
2022-08-30T18:44:33.453Z,26.70
2022-08-30T18:47:03.778Z,26.70
2022-08-30T18:49:33.810Z,26.50
2022-08-30T18:52:02.265Z,26.40
2022-08-30T18:54:30.428Z,26.30
2022-08-30T18:56:57.443Z,26.20
2022-08-30T18:59:35.546Z,26.10
2022-08-30T19:02:04.842Z,26.00
2022-08-30T19:04:39.259Z,25.80
2022-08-30T19:07:12.229Z,25.70
2022-08-30T19:09:40.065Z,25.60
2022-08-30T19:12:09.371Z,25.50
2022-08-30T19:14:36.858Z,25.40
2022-08-30T19:17:06.948Z,25.30
2022-08-30T19:19:35.131Z,25.20
2022-08-30T19:22:04.135Z,25.10
2022-08-30T19:24:31.611Z,25.10
2022-08-30T19:26:59.474Z,25.00
2022-08-30T19:29:26.838Z,25.00
2022-08-30T19:31:55.091Z,25.00
2022-08-30T19:34:22.111Z,24.90
2022-08-30T19:36:49.106Z,24.90
2022-08-30T19:39:16.443Z,24.80
2022-08-30T19:41:44.501Z,24.70
2022-08-30T19:44:11.520Z,24.60
2022-08-30T19:46:38.530Z,24.50
2022-08-30T19:49:07.209Z,24.40
2022-08-30T19:51:34.279Z,24.40
2022-08-30T19:54:02.616Z,24.40
2022-08-30T19:56:30.242Z,24.30
2022-08-30T19:58:57.251Z,24.30
2022-08-30T20:01:32.458Z,24.30
2022-08-30T20:04:02.411Z,24.30
2022-08-30T20:06:31.163Z,24.20
2022-08-30T20:08:59.800Z,24.20
2022-08-30T20:11:27.588Z,24.10
2022-08-30T20:13:54.645Z,24.10
2022-08-30T20:16:21.888Z,24.10
2022-08-30T20:19:02.938Z,24.10
2022-08-30T20:21:30.979Z,24.00
2022-08-30T20:23:58.105Z,24.00
2022-08-30T20:26:33.470Z,23.90
2022-08-30T20:29:04.484Z,23.90
2022-08-30T20:31:31.553Z,23.90
2022-08-30T20:33:58.602Z,23.90
2022-08-30T20:36:26.021Z,23.80
2022-08-30T20:38:53.267Z,23.80
2022-08-30T20:41:20.425Z,23.80
2022-08-30T20:43:48.912Z,23.70
2022-08-30T20:46:18.950Z,23.70
2022-08-30T20:48:46.846Z,23.60
2022-08-30T20:51:17.224Z,23.60
2022-08-30T20:53:46.471Z,23.60
2022-08-30T20:56:20.047Z,23.60
2022-08-30T20:58:47.531Z,23.50
2022-08-30T21:01:16.152Z,23.40
2022-08-30T21:03:45.054Z,23.40
2022-08-30T21:06:12.336Z,23.30
2022-08-30T21:08:40.024Z,23.30
2022-08-30T21:11:07.411Z,23.30
2022-08-30T21:13:34.418Z,23.20
2022-08-30T21:16:03.695Z,23.10
2022-08-30T21:18:33.198Z,23.10
2022-08-30T21:21:12.092Z,23.00
2022-08-30T21:23:39.081Z,22.90
2022-08-30T21:26:07.235Z,22.80
2022-08-30T21:28:34.501Z,22.80
2022-08-30T21:31:14.210Z,22.70
2022-08-30T21:33:41.661Z,22.60
2022-08-30T21:36:28.137Z,22.60
2022-08-30T21:38:59.677Z,22.50
2022-08-30T21:41:29.690Z,22.50
2022-08-30T21:44:02.349Z,22.50
2022-08-30T21:46:32.402Z,22.40
2022-08-30T21:49:01.958Z,22.40
2022-08-30T21:51:31.821Z,22.30
2022-08-30T21:53:59.032Z,22.30
2022-08-30T21:56:26.199Z,22.30
2022-08-30T21:58:53.455Z,22.20
2022-08-30T22:01:23.655Z,22.20
2022-08-30T22:03:52.527Z,22.10
2022-08-30T22:06:20.173Z,22.10
2022-08-30T22:08:49.042Z,22.00
2022-08-30T22:11:21.671Z,22.00
2022-08-30T22:13:49.979Z,22.00
2022-08-30T22:16:18.506Z,21.90
2022-08-30T22:18:46.485Z,21.90
2022-08-30T22:21:15.827Z,21.90
2022-08-30T22:23:43.764Z,21.90
2022-08-30T22:26:11.923Z,21.80
2022-08-30T22:28:39.031Z,21.80
2022-08-30T22:31:08.887Z,21.70
2022-08-30T22:33:36.143Z,21.60
2022-08-30T22:36:12.718Z,21.60
2022-08-30T22:38:40.912Z,21.60
2022-08-30T22:41:13.424Z,21.50
2022-08-30T22:43:40.778Z,21.50
2022-08-30T22:46:08.607Z,21.50
2022-08-30T22:48:36.956Z,21.40
2022-08-30T22:51:04.415Z,21.40
2022-08-30T22:53:32.341Z,21.40
2022-08-30T22:56:00.185Z,21.30
2022-08-30T22:58:27.182Z,21.30
2022-08-30T23:00:55.350Z,21.20
2022-08-30T23:03:22.618Z,21.20
2022-08-30T23:05:49.583Z,21.20
2022-08-30T23:08:16.589Z,21.10
2022-08-30T23:10:44.537Z,21.10
2022-08-30T23:13:11.744Z,21.10
2022-08-30T23:15:38.975Z,21.00
2022-08-30T23:18:06.053Z,21.00
2022-08-30T23:20:33.343Z,21.00
2022-08-30T23:23:00.262Z,21.00
2022-08-30T23:25:52.027Z,21.00
2022-08-30T23:28:39.601Z,21.00
2022-08-30T23:31:34.030Z,20.90
2022-08-30T23:34:20.285Z,20.90
2022-08-30T23:37:06.032Z,20.90
2022-08-30T23:39:51.726Z,20.90
2022-08-30T23:42:37.258Z,20.80
2022-08-30T23:45:23.365Z,20.80
2022-08-30T23:48:08.983Z,20.80
2022-08-30T23:50:54.626Z,20.70
2022-08-30T23:53:43.676Z,20.70
2022-08-30T23:56:30.914Z,20.70
2022-08-30T23:59:16.432Z,20.70
